sensor_id;sensor_type;location;lat;lon;timestamp;temperature;humidity
44833;DHT22;30569;51.252;9.830;2023-02-01T00:01:34;3.30;99.90
44833;DHT22;30569;51.252;9.830;2023-02-01T00:04:00;3.30;99.90
44833;DHT22;30569;51.252;9.830;2023-02-01T00:08:55;3.50;99.90
44833;DHT22;30569;51.252;9.830;2023-02-01T00:11:21;3.30;99.90
44833;DHT22;30569;51.252;9.830;2023-02-01T00:13:46;3.10;99.90
44833;DHT22;30569;51.252;9.830;2023-02-01T00:16:15;3.20;99.90
44833;DHT22;30569;51.252;9.830;2023-02-01T00:18:48;3.30;99.90
44833;DHT22;30569;51.252;9.830;2023-02-01T00:21:15;3.40;99.90
44833;DHT22;30569;51.252;9.830;2023-02-01T00:23:41;3.60;99.90
44833;DHT22;30569;51.252;9.830;2023-02-01T00:26:18;3.30;99.90
44833;DHT22;30569;51.252;9.830;2023-02-01T00:31:10;3.30;99.90
44833;DHT22;30569;51.252;9.830;2023-02-01T00:33:35;3.40;99.90
44833;DHT22;30569;51.252;9.830;2023-02-01T00:36:03;3.40;99.90
44833;DHT22;30569;51.252;9.830;2023-02-01T00:38:29;3.60;99.90
44833;DHT22;30569;51.252;9.830;2023-02-01T00:43:28;3.50;99.90
44833;DHT22;30569;51.252;9.830;2023-02-01T00:45:53;3.60;99.90
44833;DHT22;30569;51.252;9.830;2023-02-01T00:48:19;3.20;99.90
44833;DHT22;30569;51.252;9.830;2023-02-01T00:50:44;3.40;99.90
44833;DHT22;30569;51.252;9.830;2023-02-01T00:53:10;3.30;99.90
44833;DHT22;30569;51.252;9.830;2023-02-01T00:55:36;3.20;99.90
44833;DHT22;30569;51.252;9.830;2023-02-01T01:02:54;3.40;99.90
44833;DHT22;30569;51.252;9.830;2023-02-01T01:05:21;3.30;99.90
44833;DHT22;30569;51.252;9.830;2023-02-01T01:07:46;3.20;99.90
44833;DHT22;30569;51.252;9.830;2023-02-01T01:10:12;3.30;99.90
44833;DHT22;30569;51.252;9.830;2023-02-01T01:12:37;3.10;99.90
44833;DHT22;30569;51.252;9.830;2023-02-01T01:15:03;3.20;99.90
44833;DHT22;30569;51.252;9.830;2023-02-01T01:17:31;3.00;99.90
44833;DHT22;30569;51.252;9.830;2023-02-01T01:19:57;3.20;99.90
44833;DHT22;30569;51.252;9.830;2023-02-01T01:22:22;3.20;99.90
44833;DHT22;30569;51.252;9.830;2023-02-01T01:24:48;2.70;99.90
44833;DHT22;30569;51.252;9.830;2023-02-01T01:27:14;2.90;99.90
44833;DHT22;30569;51.252;9.830;2023-02-01T01:29:40;3.10;99.90
44833;DHT22;30569;51.252;9.830;2023-02-01T01:32:05;3.60;99.90
44833;DHT22;30569;51.252;9.830;2023-02-01T01:34:31;3.40;99.90
44833;DHT22;30569;51.252;9.830;2023-02-01T01:36:56;3.20;99.90
44833;DHT22;30569;51.252;9.830;2023-02-01T01:39:22;3.20;99.90
44833;DHT22;30569;51.252;9.830;2023-02-01T01:41:47;3.20;99.90
44833;DHT22;30569;51.252;9.830;2023-02-01T01:47:16;3.10;99.90
44833;DHT22;30569;51.252;9.830;2023-02-01T01:49:42;3.20;99.90
44833;DHT22;30569;51.252;9.830;2023-02-01T01:52:08;3.10;99.90
44833;DHT22;30569;51.252;9.830;2023-02-01T01:54:40;3.20;99.90
44833;DHT22;30569;51.252;9.830;2023-02-01T01:57:17;2.90;99.90
44833;DHT22;30569;51.252;9.830;2023-02-01T01:59:48;3.00;99.90
44833;DHT22;30569;51.252;9.830;2023-02-01T02:02:15;3.20;99.90
44833;DHT22;30569;51.252;9.830;2023-02-01T02:04:41;2.80;99.90
44833;DHT22;30569;51.252;9.830;2023-02-01T02:07:14;2.90;99.90
44833;DHT22;30569;51.252;9.830;2023-02-01T02:12:08;2.90;99.90
44833;DHT22;30569;51.252;9.830;2023-02-01T02:17:10;2.80;99.90
44833;DHT22;30569;51.252;9.830;2023-02-01T02:20:11;2.80;99.90
44833;DHT22;30569;51.252;9.830;2023-02-01T02:34:21;3.00;99.90
44833;DHT22;30569;51.252;9.830;2023-02-01T02:40:04;3.10;99.90
44833;DHT22;30569;51.252;9.830;2023-02-01T02:45:50;3.00;99.90
44833;DHT22;30569;51.252;9.830;2023-02-01T02:51:24;2.80;99.90
44833;DHT22;30569;51.252;9.830;2023-02-01T02:54:15;2.50;99.90
44833;DHT22;30569;51.252;9.830;2023-02-01T02:57:03;2.50;99.90
44833;DHT22;30569;51.252;9.830;2023-02-01T02:59:51;2.30;99.90
44833;DHT22;30569;51.252;9.830;2023-02-01T03:02:37;2.40;99.90
44833;DHT22;30569;51.252;9.830;2023-02-01T03:05:22;2.40;99.90
44833;DHT22;30569;51.252;9.830;2023-02-01T03:11:02;3.00;99.90
44833;DHT22;30569;51.252;9.830;2023-02-01T03:13:45;2.60;99.90
44833;DHT22;30569;51.252;9.830;2023-02-01T03:16:46;2.60;99.90
44833;DHT22;30569;51.252;9.830;2023-02-01T03:19:43;2.80;99.90
44833;DHT22;30569;51.252;9.830;2023-02-01T03:22:16;3.20;99.90
44833;DHT22;30569;51.252;9.830;2023-02-01T03:25:12;3.20;99.90
44833;DHT22;30569;51.252;9.830;2023-02-01T03:27:54;2.90;99.90
44833;DHT22;30569;51.252;9.830;2023-02-01T03:30:25;2.50;99.90
44833;DHT22;30569;51.252;9.830;2023-02-01T03:32:54;2.50;99.90
44833;DHT22;30569;51.252;9.830;2023-02-01T03:35:39;2.70;99.90
44833;DHT22;30569;51.252;9.830;2023-02-01T03:38:16;2.90;99.90
44833;DHT22;30569;51.252;9.830;2023-02-01T03:40:47;3.10;99.90
44833;DHT22;30569;51.252;9.830;2023-02-01T03:43:17;2.90;99.90
44833;DHT22;30569;51.252;9.830;2023-02-01T03:45:48;3.10;99.90
44833;DHT22;30569;51.252;9.830;2023-02-01T03:48:16;3.40;99.90
44833;DHT22;30569;51.252;9.830;2023-02-01T03:50:46;3.60;99.90
44833;DHT22;30569;51.252;9.830;2023-02-01T03:53:17;3.20;99.90
44833;DHT22;30569;51.252;9.830;2023-02-01T03:55:44;3.20;99.90
44833;DHT22;30569;51.252;9.830;2023-02-01T03:58:19;3.10;99.90
44833;DHT22;30569;51.252;9.830;2023-02-01T04:00:54;2.70;99.90
44833;DHT22;30569;51.252;9.830;2023-02-01T04:05:48;2.60;99.90
44833;DHT22;30569;51.252;9.830;2023-02-01T04:08:13;2.70;99.90
44833;DHT22;30569;51.252;9.830;2023-02-01T04:10:39;2.60;99.90
44833;DHT22;30569;51.252;9.830;2023-02-01T04:13:04;2.70;99.90
44833;DHT22;30569;51.252;9.830;2023-02-01T04:15:30;2.80;99.90
44833;DHT22;30569;51.252;9.830;2023-02-01T04:20:21;2.60;99.90
44833;DHT22;30569;51.252;9.830;2023-02-01T04:22:47;2.60;99.90
44833;DHT22;30569;51.252;9.830;2023-02-01T04:25:13;2.70;99.90
44833;DHT22;30569;51.252;9.830;2023-02-01T04:27:38;2.90;99.90
44833;DHT22;30569;51.252;9.830;2023-02-01T04:30:04;2.80;99.90
44833;DHT22;30569;51.252;9.830;2023-02-01T04:35:00;2.90;99.90
44833;DHT22;30569;51.252;9.830;2023-02-01T04:39:52;2.70;99.90
44833;DHT22;30569;51.252;9.830;2023-02-01T04:42:17;3.20;99.90
44833;DHT22;30569;51.252;9.830;2023-02-01T04:44:43;2.80;99.90
44833;DHT22;30569;51.252;9.830;2023-02-01T04:47:08;2.80;99.90
44833;DHT22;30569;51.252;9.830;2023-02-01T04:49:34;2.90;99.90
44833;DHT22;30569;51.252;9.830;2023-02-01T04:52:00;2.90;99.90
44833;DHT22;30569;51.252;9.830;2023-02-01T04:59:17;3.00;99.90
44833;DHT22;30569;51.252;9.830;2023-02-01T05:01:43;3.00;99.90
44833;DHT22;30569;51.252;9.830;2023-02-01T05:09:01;3.00;99.90
44833;DHT22;30569;51.252;9.830;2023-02-01T05:11:26;3.00;99.90
44833;DHT22;30569;51.252;9.830;2023-02-01T05:14:10;3.10;99.90
44833;DHT22;30569;51.252;9.830;2023-02-01T05:16:36;3.00;99.90
44833;DHT22;30569;51.252;9.830;2023-02-01T05:21:27;2.80;99.90
44833;DHT22;30569;51.252;9.830;2023-02-01T05:26:38;3.10;99.90
44833;DHT22;30569;51.252;9.830;2023-02-01T05:29:05;3.20;99.90
44833;DHT22;30569;51.252;9.830;2023-02-01T05:33:56;3.40;99.90
44833;DHT22;30569;51.252;9.830;2023-02-01T05:36:22;3.00;99.90
44833;DHT22;30569;51.252;9.830;2023-02-01T05:38:47;3.10;99.90
44833;DHT22;30569;51.252;9.830;2023-02-01T05:41:13;3.10;99.90
44833;DHT22;30569;51.252;9.830;2023-02-01T05:43:38;3.10;99.90
44833;DHT22;30569;51.252;9.830;2023-02-01T05:46:04;3.10;99.90
44833;DHT22;30569;51.252;9.830;2023-02-01T05:48:30;3.30;99.90
44833;DHT22;30569;51.252;9.830;2023-02-01T05:50:55;3.00;99.90
44833;DHT22;30569;51.252;9.830;2023-02-01T05:53:21;3.10;99.90
44833;DHT22;30569;51.252;9.830;2023-02-01T05:58:12;3.30;99.90
44833;DHT22;30569;51.252;9.830;2023-02-01T06:00:39;3.20;99.90
44833;DHT22;30569;51.252;9.830;2023-02-01T06:03:05;3.10;99.90
44833;DHT22;30569;51.252;9.830;2023-02-01T06:05:30;3.30;99.90
44833;DHT22;30569;51.252;9.830;2023-02-01T06:07:56;3.90;99.90
44833;DHT22;30569;51.252;9.830;2023-02-01T06:10:22;3.40;99.90
44833;DHT22;30569;51.252;9.830;2023-02-01T06:17:45;3.50;99.90
44833;DHT22;30569;51.252;9.830;2023-02-01T06:20:13;3.70;99.90
44833;DHT22;30569;51.252;9.830;2023-02-01T06:22:40;3.50;99.90
44833;DHT22;30569;51.252;9.830;2023-02-01T06:25:07;3.40;99.90
44833;DHT22;30569;51.252;9.830;2023-02-01T06:27:33;3.40;99.90
44833;DHT22;30569;51.252;9.830;2023-02-01T06:29:59;3.60;99.90
44833;DHT22;30569;51.252;9.830;2023-02-01T06:32:25;3.30;99.90
44833;DHT22;30569;51.252;9.830;2023-02-01T06:34:51;3.40;99.90
44833;DHT22;30569;51.252;9.830;2023-02-01T06:37:18;3.40;99.90
44833;DHT22;30569;51.252;9.830;2023-02-01T06:39:44;3.40;99.90
44833;DHT22;30569;51.252;9.830;2023-02-01T06:42:09;3.90;99.90
44833;DHT22;30569;51.252;9.830;2023-02-01T06:44:35;4.00;99.90
44833;DHT22;30569;51.252;9.830;2023-02-01T06:47:02;3.50;99.90
44833;DHT22;30569;51.252;9.830;2023-02-01T06:59:11;3.20;99.90
44833;DHT22;30569;51.252;9.830;2023-02-01T07:01:37;3.30;99.90
44833;DHT22;30569;51.252;9.830;2023-02-01T07:04:03;3.30;99.90
44833;DHT22;30569;51.252;9.830;2023-02-01T07:06:28;3.20;99.90
44833;DHT22;30569;51.252;9.830;2023-02-01T07:11:21;4.10;99.90
44833;DHT22;30569;51.252;9.830;2023-02-01T07:13:48;3.30;99.90
44833;DHT22;30569;51.252;9.830;2023-02-01T07:16:16;3.40;99.90
44833;DHT22;30569;51.252;9.830;2023-02-01T07:18:42;3.20;99.90
44833;DHT22;30569;51.252;9.830;2023-02-01T07:23:34;3.50;99.90
44833;DHT22;30569;51.252;9.830;2023-02-01T07:26:02;3.70;99.90
44833;DHT22;30569;51.252;9.830;2023-02-01T07:28:30;3.60;99.90
44833;DHT22;30569;51.252;9.830;2023-02-01T07:31:05;3.60;99.90
44833;DHT22;30569;51.252;9.830;2023-02-01T07:33:31;3.60;99.90
44833;DHT22;30569;51.252;9.830;2023-02-01T07:35:56;3.50;99.90
44833;DHT22;30569;51.252;9.830;2023-02-01T07:38:22;3.40;99.90
44833;DHT22;30569;51.252;9.830;2023-02-01T07:40:49;3.50;99.90
44833;DHT22;30569;51.252;9.830;2023-02-01T07:43:15;3.80;99.90
44833;DHT22;30569;51.252;9.830;2023-02-01T07:48:07;3.60;99.90
44833;DHT22;30569;51.252;9.830;2023-02-01T07:50:32;3.60;99.90
44833;DHT22;30569;51.252;9.830;2023-02-01T07:53:01;3.70;99.90
44833;DHT22;30569;51.252;9.830;2023-02-01T07:55:27;3.90;99.90
44833;DHT22;30569;51.252;9.830;2023-02-01T07:57:52;3.80;99.90
44833;DHT22;30569;51.252;9.830;2023-02-01T08:00:18;4.10;99.90
44833;DHT22;30569;51.252;9.830;2023-02-01T08:03:04;3.90;99.90
44833;DHT22;30569;51.252;9.830;2023-02-01T08:05:30;3.80;99.90
44833;DHT22;30569;51.252;9.830;2023-02-01T08:10:22;4.00;99.90
44833;DHT22;30569;51.252;9.830;2023-02-01T08:12:47;4.00;99.90
44833;DHT22;30569;51.252;9.830;2023-02-01T08:15:17;4.10;99.90
44833;DHT22;30569;51.252;9.830;2023-02-01T08:17:49;4.20;99.90
44833;DHT22;30569;51.252;9.830;2023-02-01T08:20:14;4.20;99.90
44833;DHT22;30569;51.252;9.830;2023-02-01T08:27:33;4.10;99.90
44833;DHT22;30569;51.252;9.830;2023-02-01T08:32:26;3.90;99.90
44833;DHT22;30569;51.252;9.830;2023-02-01T08:37:17;4.10;99.90
44833;DHT22;30569;51.252;9.830;2023-02-01T08:39:43;4.10;99.90
44833;DHT22;30569;51.252;9.830;2023-02-01T08:42:10;3.80;99.90
44833;DHT22;30569;51.252;9.830;2023-02-01T08:44:55;4.00;99.90
44833;DHT22;30569;51.252;9.830;2023-02-01T08:47:20;3.90;99.90
44833;DHT22;30569;51.252;9.830;2023-02-01T08:49:46;4.30;99.90
44833;DHT22;30569;51.252;9.830;2023-02-01T08:54:37;4.30;99.90
44833;DHT22;30569;51.252;9.830;2023-02-01T08:59:31;4.20;99.90
44833;DHT22;30569;51.252;9.830;2023-02-01T09:04:22;4.30;99.90
44833;DHT22;30569;51.252;9.830;2023-02-01T09:06:48;4.10;99.90
44833;DHT22;30569;51.252;9.830;2023-02-01T09:11:40;4.50;99.90
44833;DHT22;30569;51.252;9.830;2023-02-01T09:14:06;4.30;99.90
44833;DHT22;30569;51.252;9.830;2023-02-01T09:18:58;4.70;99.90
44833;DHT22;30569;51.252;9.830;2023-02-01T09:21:23;4.60;99.90
44833;DHT22;30569;51.252;9.830;2023-02-01T09:23:51;4.60;99.90
44833;DHT22;30569;51.252;9.830;2023-02-01T09:26:16;4.90;99.90
44833;DHT22;30569;51.252;9.830;2023-02-01T09:28:42;4.80;99.90
44833;DHT22;30569;51.252;9.830;2023-02-01T09:36:02;5.00;99.90
44833;DHT22;30569;51.252;9.830;2023-02-01T09:38:28;5.00;99.90
44833;DHT22;30569;51.252;9.830;2023-02-01T09:40:55;5.20;99.90
44833;DHT22;30569;51.252;9.830;2023-02-01T09:46:16;5.40;99.90
44833;DHT22;30569;51.252;9.830;2023-02-01T09:48:44;5.30;99.90
44833;DHT22;30569;51.252;9.830;2023-02-01T09:51:17;5.10;99.90
44833;DHT22;30569;51.252;9.830;2023-02-01T09:53:48;5.00;99.90
44833;DHT22;30569;51.252;9.830;2023-02-01T09:56:29;5.00;99.90
44833;DHT22;30569;51.252;9.830;2023-02-01T09:59:34;5.20;99.90
44833;DHT22;30569;51.252;9.830;2023-02-01T10:01:56;5.60;99.90
44833;DHT22;30569;51.252;9.830;2023-02-01T10:04:24;5.50;99.90
44833;DHT22;30569;51.252;9.830;2023-02-01T10:07:25;5.50;99.90
44833;DHT22;30569;51.252;9.830;2023-02-01T10:09:59;5.30;99.90
44833;DHT22;30569;51.252;9.830;2023-02-01T10:25:55;5.50;99.90
44833;DHT22;30569;51.252;9.830;2023-02-01T10:28:22;5.30;99.90
44833;DHT22;30569;51.252;9.830;2023-02-01T10:30:54;5.20;99.90
44833;DHT22;30569;51.252;9.830;2023-02-01T10:33:45;5.20;99.90
44833;DHT22;30569;51.252;9.830;2023-02-01T10:36:22;5.30;99.90
44833;DHT22;30569;51.252;9.830;2023-02-01T10:38:50;5.10;99.90
44833;DHT22;30569;51.252;9.830;2023-02-01T10:41:23;5.00;99.90
44833;DHT22;30569;51.252;9.830;2023-02-01T10:43:56;5.20;99.90
44833;DHT22;30569;51.252;9.830;2023-02-01T10:46:25;5.40;99.90
44833;DHT22;30569;51.252;9.830;2023-02-01T10:48:54;5.10;99.90
44833;DHT22;30569;51.252;9.830;2023-02-01T10:51:29;5.10;99.90
44833;DHT22;30569;51.252;9.830;2023-02-01T10:54:00;4.90;99.90
44833;DHT22;30569;51.252;9.830;2023-02-01T10:56:28;4.80;99.90
44833;DHT22;30569;51.252;9.830;2023-02-01T10:59:06;5.00;99.90
44833;DHT22;30569;51.252;9.830;2023-02-01T11:01:41;5.20;99.90
44833;DHT22;30569;51.252;9.830;2023-02-01T11:06:40;5.10;99.90
44833;DHT22;30569;51.252;9.830;2023-02-01T11:14:15;5.20;99.90
44833;DHT22;30569;51.252;9.830;2023-02-01T11:16:52;5.70;99.90
44833;DHT22;30569;51.252;9.830;2023-02-01T11:19:18;5.40;99.90
44833;DHT22;30569;51.252;9.830;2023-02-01T11:21:44;5.50;99.90
44833;DHT22;30569;51.252;9.830;2023-02-01T11:24:25;5.50;99.90
44833;DHT22;30569;51.252;9.830;2023-02-01T11:26:58;5.50;99.90
44833;DHT22;30569;51.252;9.830;2023-02-01T11:29:25;5.50;99.90
44833;DHT22;30569;51.252;9.830;2023-02-01T11:31:58;5.30;99.90
44833;DHT22;30569;51.252;9.830;2023-02-01T11:34:28;5.30;99.90
44833;DHT22;30569;51.252;9.830;2023-02-01T11:36:58;5.40;99.90
44833;DHT22;30569;51.252;9.830;2023-02-01T11:39:30;5.30;99.90
44833;DHT22;30569;51.252;9.830;2023-02-01T11:42:04;5.50;99.90
44833;DHT22;30569;51.252;9.830;2023-02-01T11:44:37;5.30;99.90
44833;DHT22;30569;51.252;9.830;2023-02-01T11:49:53;5.10;99.90
44833;DHT22;30569;51.252;9.830;2023-02-01T11:52:38;5.20;99.90
44833;DHT22;30569;51.252;9.830;2023-02-01T12:09:31;5.50;99.90
44833;DHT22;30569;51.252;9.830;2023-02-01T12:17:47;5.30;99.90
44833;DHT22;30569;51.252;9.830;2023-02-01T12:22:58;5.60;99.90
44833;DHT22;30569;51.252;9.830;2023-02-01T12:25:36;5.50;99.90
44833;DHT22;30569;51.252;9.830;2023-02-01T12:28:26;5.50;99.90
44833;DHT22;30569;51.252;9.830;2023-02-01T12:36:43;5.70;99.90
44833;DHT22;30569;51.252;9.830;2023-02-01T12:39:23;5.70;99.90
44833;DHT22;30569;51.252;9.830;2023-02-01T12:41:52;5.90;99.90
44833;DHT22;30569;51.252;9.830;2023-02-01T12:46:54;5.90;99.90
44833;DHT22;30569;51.252;9.830;2023-02-01T12:51:58;5.30;99.90
44833;DHT22;30569;51.252;9.830;2023-02-01T12:54:49;5.60;99.90
44833;DHT22;30569;51.252;9.830;2023-02-01T12:57:23;5.20;99.90
44833;DHT22;30569;51.252;9.830;2023-02-01T12:59:56;5.50;99.90
44833;DHT22;30569;51.252;9.830;2023-02-01T13:05:24;5.50;99.90
44833;DHT22;30569;51.252;9.830;2023-02-01T13:08:02;5.80;99.90
44833;DHT22;30569;51.252;9.830;2023-02-01T13:13:32;5.70;99.90
44833;DHT22;30569;51.252;9.830;2023-02-01T13:16:44;5.50;99.90
44833;DHT22;30569;51.252;9.830;2023-02-01T13:19:59;6.10;99.90
44833;DHT22;30569;51.252;9.830;2023-02-01T13:22:24;5.40;99.90
44833;DHT22;30569;51.252;9.830;2023-02-01T13:25:29;5.20;99.90
44833;DHT22;30569;51.252;9.830;2023-02-01T13:28:06;5.20;99.90
44833;DHT22;30569;51.252;9.830;2023-02-01T13:33:44;5.20;99.90
44833;DHT22;30569;51.252;9.830;2023-02-01T13:42:17;5.00;99.90
44833;DHT22;30569;51.252;9.830;2023-02-01T13:44:47;4.90;99.90
44833;DHT22;30569;51.252;9.830;2023-02-01T13:47:29;4.90;99.90
44833;DHT22;30569;51.252;9.830;2023-02-01T13:52:44;5.10;99.90
44833;DHT22;30569;51.252;9.830;2023-02-01T13:55:23;5.10;99.90
44833;DHT22;30569;51.252;9.830;2023-02-01T13:58:01;4.90;99.90
44833;DHT22;30569;51.252;9.830;2023-02-01T14:00:28;5.00;99.90
44833;DHT22;30569;51.252;9.830;2023-02-01T14:10:49;5.00;99.90
44833;DHT22;30569;51.252;9.830;2023-02-01T14:13:34;4.50;99.90
44833;DHT22;30569;51.252;9.830;2023-02-01T14:21:19;4.30;99.90
44833;DHT22;30569;51.252;9.830;2023-02-01T14:24:01;4.40;99.90
44833;DHT22;30569;51.252;9.830;2023-02-01T14:26:45;4.40;99.90
44833;DHT22;30569;51.252;9.830;2023-02-01T14:31:48;4.40;99.90
44833;DHT22;30569;51.252;9.830;2023-02-01T14:34:30;4.40;99.90
44833;DHT22;30569;51.252;9.830;2023-02-01T14:36:59;4.30;99.90
44833;DHT22;30569;51.252;9.830;2023-02-01T14:39:36;4.30;99.90
44833;DHT22;30569;51.252;9.830;2023-02-01T14:44:50;4.10;99.90
44833;DHT22;30569;51.252;9.830;2023-02-01T14:47:26;4.10;99.90
44833;DHT22;30569;51.252;9.830;2023-02-01T14:49:56;4.10;99.90
44833;DHT22;30569;51.252;9.830;2023-02-01T14:52:30;4.20;99.90
44833;DHT22;30569;51.252;9.830;2023-02-01T14:55:01;3.90;99.90
44833;DHT22;30569;51.252;9.830;2023-02-01T14:57:29;4.10;99.90
44833;DHT22;30569;51.252;9.830;2023-02-01T15:00:14;4.20;99.90
44833;DHT22;30569;51.252;9.830;2023-02-01T15:05:30;4.20;99.90
44833;DHT22;30569;51.252;9.830;2023-02-01T15:08:03;4.30;99.90
44833;DHT22;30569;51.252;9.830;2023-02-01T15:10:31;4.30;99.90
44833;DHT22;30569;51.252;9.830;2023-02-01T15:15:24;4.30;99.90
44833;DHT22;30569;51.252;9.830;2023-02-01T15:17:58;4.20;99.90
44833;DHT22;30569;51.252;9.830;2023-02-01T15:20:34;4.30;99.90
44833;DHT22;30569;51.252;9.830;2023-02-01T15:23:04;4.30;99.90
44833;DHT22;30569;51.252;9.830;2023-02-01T15:25:33;4.30;99.90
44833;DHT22;30569;51.252;9.830;2023-02-01T15:30:28;4.30;99.90
44833;DHT22;30569;51.252;9.830;2023-02-01T15:35:43;4.50;99.90
44833;DHT22;30569;51.252;9.830;2023-02-01T15:38:20;4.30;99.90
44833;DHT22;30569;51.252;9.830;2023-02-01T15:46:40;4.10;99.90
44833;DHT22;30569;51.252;9.830;2023-02-01T15:51:52;4.20;99.90
44833;DHT22;30569;51.252;9.830;2023-02-01T15:54:31;3.90;99.90
44833;DHT22;30569;51.252;9.830;2023-02-01T15:57:00;4.30;99.90
44833;DHT22;30569;51.252;9.830;2023-02-01T15:59:35;4.00;99.90
44833;DHT22;30569;51.252;9.830;2023-02-01T16:02:03;3.90;99.90
44833;DHT22;30569;51.252;9.830;2023-02-01T16:04:29;4.00;99.90
44833;DHT22;30569;51.252;9.830;2023-02-01T16:07:03;3.90;99.90
44833;DHT22;30569;51.252;9.830;2023-02-01T16:09:52;3.90;99.90
44833;DHT22;30569;51.252;9.830;2023-02-01T16:12:33;4.00;99.90
44833;DHT22;30569;51.252;9.830;2023-02-01T16:15:04;4.10;99.90
44833;DHT22;30569;51.252;9.830;2023-02-01T16:17:30;3.90;99.90
44833;DHT22;30569;51.252;9.830;2023-02-01T16:24:49;4.10;99.90
44833;DHT22;30569;51.252;9.830;2023-02-01T16:27:14;3.80;99.90
44833;DHT22;30569;51.252;9.830;2023-02-01T16:39:26;3.80;99.90
44833;DHT22;30569;51.252;9.830;2023-02-01T16:41:53;4.00;99.90
44833;DHT22;30569;51.252;9.830;2023-02-01T16:44:19;3.90;99.90
44833;DHT22;30569;51.252;9.830;2023-02-01T16:46:46;3.90;99.90
44833;DHT22;30569;51.252;9.830;2023-02-01T16:49:22;4.00;99.90
44833;DHT22;30569;51.252;9.830;2023-02-01T16:51:50;4.00;99.90
44833;DHT22;30569;51.252;9.830;2023-02-01T16:54:18;4.00;99.90
44833;DHT22;30569;51.252;9.830;2023-02-01T16:59:10;3.70;99.90
44833;DHT22;30569;51.252;9.830;2023-02-01T17:01:36;3.80;99.90
44833;DHT22;30569;51.252;9.830;2023-02-01T17:06:32;4.00;99.90
44833;DHT22;30569;51.252;9.830;2023-02-01T17:08:59;4.10;99.90
44833;DHT22;30569;51.252;9.830;2023-02-01T17:13:52;5.00;99.90
44833;DHT22;30569;51.252;9.830;2023-02-01T17:18:46;4.20;99.90
44833;DHT22;30569;51.252;9.830;2023-02-01T17:33:29;3.90;99.90
44833;DHT22;30569;51.252;9.830;2023-02-01T17:38:22;3.20;99.90
44833;DHT22;30569;51.252;9.830;2023-02-01T17:43:16;3.20;99.90
44833;DHT22;30569;51.252;9.830;2023-02-01T17:45:49;2.80;99.90
44833;DHT22;30569;51.252;9.830;2023-02-01T17:48:17;2.80;99.90
44833;DHT22;30569;51.252;9.830;2023-02-01T17:53:10;2.30;99.90
44833;DHT22;30569;51.252;9.830;2023-02-01T17:55:37;2.70;99.90
44833;DHT22;30569;51.252;9.830;2023-02-01T17:58:03;3.00;99.90
44833;DHT22;30569;51.252;9.830;2023-02-01T18:00:29;3.30;99.90
44833;DHT22;30569;51.252;9.830;2023-02-01T18:02:54;3.60;99.90
44833;DHT22;30569;51.252;9.830;2023-02-01T18:07:49;3.30;99.90
44833;DHT22;30569;51.252;9.830;2023-02-01T18:10:15;3.50;99.90
44833;DHT22;30569;51.252;9.830;2023-02-01T18:15:20;3.90;99.90
44833;DHT22;30569;51.252;9.830;2023-02-01T18:17:46;3.80;99.90
44833;DHT22;30569;51.252;9.830;2023-02-01T18:20:18;3.30;99.90
44833;DHT22;30569;51.252;9.830;2023-02-01T18:22:44;3.50;99.90
44833;DHT22;30569;51.252;9.830;2023-02-01T18:30:08;3.40;99.90
44833;DHT22;30569;51.252;9.830;2023-02-01T18:32:34;2.90;99.90
44833;DHT22;30569;51.252;9.830;2023-02-01T18:34:59;3.00;99.90
44833;DHT22;30569;51.252;9.830;2023-02-01T18:37:25;3.00;99.90
44833;DHT22;30569;51.252;9.830;2023-02-01T18:39:50;2.90;99.90
44833;DHT22;30569;51.252;9.830;2023-02-01T18:42:16;2.90;99.90
44833;DHT22;30569;51.252;9.830;2023-02-01T18:49:34;3.00;99.90
44833;DHT22;30569;51.252;9.830;2023-02-01T18:51:59;3.00;99.90
44833;DHT22;30569;51.252;9.830;2023-02-01T18:54:25;3.00;99.90
44833;DHT22;30569;51.252;9.830;2023-02-01T18:56:51;3.20;99.90
44833;DHT22;30569;51.252;9.830;2023-02-01T19:18:50;3.20;99.90
44833;DHT22;30569;51.252;9.830;2023-02-01T19:26:13;2.90;99.90
44833;DHT22;30569;51.252;9.830;2023-02-01T19:31:06;2.70;99.90
44833;DHT22;30569;51.252;9.830;2023-02-01T19:33:32;2.70;99.90
44833;DHT22;30569;51.252;9.830;2023-02-01T19:36:04;2.80;99.90
44833;DHT22;30569;51.252;9.830;2023-02-01T19:38:31;2.90;99.90
44833;DHT22;30569;51.252;9.830;2023-02-01T19:43:23;3.10;99.90
44833;DHT22;30569;51.252;9.830;2023-02-01T20:00:30;3.00;99.90
44833;DHT22;30569;51.252;9.830;2023-02-01T20:10:15;3.40;99.90
44833;DHT22;30569;51.252;9.830;2023-02-01T20:15:09;3.50;99.90
44833;DHT22;30569;51.252;9.830;2023-02-01T20:20:03;3.80;99.90
44833;DHT22;30569;51.252;9.830;2023-02-01T20:27:23;4.20;99.90
44833;DHT22;30569;51.252;9.830;2023-02-01T20:29:49;3.70;99.90
44833;DHT22;30569;51.252;9.830;2023-02-01T20:32:15;3.70;99.90
44833;DHT22;30569;51.252;9.830;2023-02-01T20:34:40;3.80;99.90
44833;DHT22;30569;51.252;9.830;2023-02-01T20:39:32;3.60;99.90
44833;DHT22;30569;51.252;9.830;2023-02-01T20:46:49;3.90;99.90
44833;DHT22;30569;51.252;9.830;2023-02-01T20:49:15;4.00;99.90
44833;DHT22;30569;51.252;9.830;2023-02-01T20:51:40;4.00;99.90
44833;DHT22;30569;51.252;9.830;2023-02-01T20:54:06;3.80;99.90
44833;DHT22;30569;51.252;9.830;2023-02-01T21:01:37;3.50;99.90
44833;DHT22;30569;51.252;9.830;2023-02-01T21:06:28;3.50;99.90
44833;DHT22;30569;51.252;9.830;2023-02-01T21:16:17;3.60;99.90
44833;DHT22;30569;51.252;9.830;2023-02-01T21:21:11;3.60;99.90
44833;DHT22;30569;51.252;9.830;2023-02-01T21:26:18;3.60;99.90
44833;DHT22;30569;51.252;9.830;2023-02-01T21:28:46;3.60;99.90
44833;DHT22;30569;51.252;9.830;2023-02-01T21:31:12;4.20;99.90
44833;DHT22;30569;51.252;9.830;2023-02-01T21:33:39;4.10;99.90
44833;DHT22;30569;51.252;9.830;2023-02-01T21:36:05;3.50;99.90
44833;DHT22;30569;51.252;9.830;2023-02-01T21:38:32;3.50;99.90
44833;DHT22;30569;51.252;9.830;2023-02-01T21:40:57;3.70;99.90
44833;DHT22;30569;51.252;9.830;2023-02-01T21:43:41;3.70;99.90
44833;DHT22;30569;51.252;9.830;2023-02-01T21:46:07;3.60;99.90
44833;DHT22;30569;51.252;9.830;2023-02-01T21:48:33;4.00;99.90
44833;DHT22;30569;51.252;9.830;2023-02-01T21:50:58;4.30;99.90
44833;DHT22;30569;51.252;9.830;2023-02-01T21:53:24;4.20;99.90
44833;DHT22;30569;51.252;9.830;2023-02-01T21:58:16;3.70;99.90
44833;DHT22;30569;51.252;9.830;2023-02-01T22:00:41;3.60;99.90
44833;DHT22;30569;51.252;9.830;2023-02-01T22:03:12;3.50;99.90
44833;DHT22;30569;51.252;9.830;2023-02-01T22:05:37;3.80;99.90
44833;DHT22;30569;51.252;9.830;2023-02-01T22:08:03;3.90;99.90
44833;DHT22;30569;51.252;9.830;2023-02-01T22:12:55;3.60;99.90
44833;DHT22;30569;51.252;9.830;2023-02-01T22:15:21;4.30;99.90
44833;DHT22;30569;51.252;9.830;2023-02-01T22:17:46;4.10;99.90
44833;DHT22;30569;51.252;9.830;2023-02-01T22:20:12;4.20;99.90
44833;DHT22;30569;51.252;9.830;2023-02-01T22:22:38;3.90;99.90
44833;DHT22;30569;51.252;9.830;2023-02-01T22:25:03;4.00;99.90
44833;DHT22;30569;51.252;9.830;2023-02-01T22:29:56;3.80;99.90
44833;DHT22;30569;51.252;9.830;2023-02-01T22:32:22;4.00;99.90
44833;DHT22;30569;51.252;9.830;2023-02-01T22:34:47;3.90;99.90
44833;DHT22;30569;51.252;9.830;2023-02-01T22:37:13;4.00;99.90